sensor_id;sensor_type;location;lat;lon;timestamp;P1;durP1;ratioP1;P2;durP2;ratioP2
12356;SDS011;6243;51.244;6.774;2023-04-07T00:02:12;16.60;;;14.77;;
12356;SDS011;6243;51.244;6.774;2023-04-07T00:04:39;15.27;;;13.67;;
12356;SDS011;6243;51.244;6.774;2023-04-07T00:07:04;17.27;;;14.43;;
12356;SDS011;6243;51.244;6.774;2023-04-07T00:09:30;16.70;;;14.27;;
12356;SDS011;6243;51.244;6.774;2023-04-07T00:11:55;17.73;;;15.13;;
12356;SDS011;6243;51.244;6.774;2023-04-07T00:14:21;18.63;;;15.90;;
12356;SDS011;6243;51.244;6.774;2023-04-07T00:16:46;17.23;;;15.13;;
12356;SDS011;6243;51.244;6.774;2023-04-07T00:19:12;16.97;;;14.63;;
12356;SDS011;6243;51.244;6.774;2023-04-07T00:21:38;16.90;;;15.07;;
12356;SDS011;6243;51.244;6.774;2023-04-07T00:24:04;17.33;;;14.90;;
12356;SDS011;6243;51.244;6.774;2023-04-07T00:26:30;19.93;;;16.10;;
12356;SDS011;6243;51.244;6.774;2023-04-07T00:28:55;17.43;;;15.73;;
12356;SDS011;6243;51.244;6.774;2023-04-07T00:31:21;19.70;;;16.13;;
12356;SDS011;6243;51.244;6.774;2023-04-07T00:33:46;17.57;;;15.60;;
12356;SDS011;6243;51.244;6.774;2023-04-07T00:36:12;18.43;;;15.63;;
12356;SDS011;6243;51.244;6.774;2023-04-07T00:38:39;18.80;;;16.70;;
12356;SDS011;6243;51.244;6.774;2023-04-07T00:41:04;18.50;;;16.50;;
12356;SDS011;6243;51.244;6.774;2023-04-07T00:43:30;17.83;;;15.67;;
12356;SDS011;6243;51.244;6.774;2023-04-07T00:45:56;21.47;;;17.33;;
12356;SDS011;6243;51.244;6.774;2023-04-07T00:48:21;21.47;;;15.97;;
12356;SDS011;6243;51.244;6.774;2023-04-07T00:50:47;18.07;;;16.17;;
12356;SDS011;6243;51.244;6.774;2023-04-07T00:53:12;17.87;;;15.97;;
12356;SDS011;6243;51.244;6.774;2023-04-07T00:55:39;17.10;;;15.03;;
12356;SDS011;6243;51.244;6.774;2023-04-07T00:58:05;19.97;;;17.33;;
12356;SDS011;6243;51.244;6.774;2023-04-07T01:00:32;18.47;;;15.47;;
12356;SDS011;6243;51.244;6.774;2023-04-07T01:03:04;20.70;;;15.87;;
12356;SDS011;6243;51.244;6.774;2023-04-07T01:05:34;20.23;;;17.00;;
12356;SDS011;6243;51.244;6.774;2023-04-07T01:08:07;20.33;;;17.33;;
12356;SDS011;6243;51.244;6.774;2023-04-07T01:10:42;19.10;;;17.00;;
12356;SDS011;6243;51.244;6.774;2023-04-07T01:13:15;19.30;;;17.13;;
12356;SDS011;6243;51.244;6.774;2023-04-07T01:15:48;20.97;;;18.63;;
12356;SDS011;6243;51.244;6.774;2023-04-07T01:18:16;19.13;;;17.03;;
12356;SDS011;6243;51.244;6.774;2023-04-07T01:20:46;19.73;;;17.27;;
12356;SDS011;6243;51.244;6.774;2023-04-07T01:23:16;19.83;;;17.07;;
12356;SDS011;6243;51.244;6.774;2023-04-07T01:28:43;20.80;;;17.73;;
12356;SDS011;6243;51.244;6.774;2023-04-07T01:31:21;20.93;;;16.90;;
12356;SDS011;6243;51.244;6.774;2023-04-07T01:33:49;19.50;;;16.77;;
12356;SDS011;6243;51.244;6.774;2023-04-07T01:36:16;22.17;;;17.03;;
12356;SDS011;6243;51.244;6.774;2023-04-07T01:38:43;19.53;;;16.63;;
12356;SDS011;6243;51.244;6.774;2023-04-07T01:41:09;18.13;;;16.23;;
12356;SDS011;6243;51.244;6.774;2023-04-07T01:43:36;19.80;;;16.20;;
12356;SDS011;6243;51.244;6.774;2023-04-07T01:46:03;19.83;;;17.30;;
12356;SDS011;6243;51.244;6.774;2023-04-07T01:48:31;18.80;;;16.77;;
12356;SDS011;6243;51.244;6.774;2023-04-07T01:50:59;20.17;;;16.73;;
12356;SDS011;6243;51.244;6.774;2023-04-07T01:53:24;22.73;;;17.80;;
12356;SDS011;6243;51.244;6.774;2023-04-07T01:55:51;22.13;;;18.13;;
12356;SDS011;6243;51.244;6.774;2023-04-07T01:58:18;23.67;;;18.70;;
12356;SDS011;6243;51.244;6.774;2023-04-07T02:00:44;22.37;;;17.43;;
12356;SDS011;6243;51.244;6.774;2023-04-07T02:03:10;23.97;;;18.57;;
12356;SDS011;6243;51.244;6.774;2023-04-07T02:05:40;25.23;;;18.93;;
12356;SDS011;6243;51.244;6.774;2023-04-07T02:08:07;27.87;;;20.17;;
12356;SDS011;6243;51.244;6.774;2023-04-07T02:10:36;24.07;;;18.67;;
12356;SDS011;6243;51.244;6.774;2023-04-07T02:13:03;28.50;;;20.27;;
12356;SDS011;6243;51.244;6.774;2023-04-07T02:15:31;28.67;;;21.47;;
12356;SDS011;6243;51.244;6.774;2023-04-07T02:17:57;27.73;;;21.80;;
12356;SDS011;6243;51.244;6.774;2023-04-07T02:20:24;27.73;;;20.57;;
12356;SDS011;6243;51.244;6.774;2023-04-07T02:22:52;26.30;;;20.70;;
12356;SDS011;6243;51.244;6.774;2023-04-07T02:25:21;27.37;;;21.13;;
12356;SDS011;6243;51.244;6.774;2023-04-07T02:27:47;29.90;;;21.43;;
12356;SDS011;6243;51.244;6.774;2023-04-07T02:30:13;25.90;;;20.50;;
12356;SDS011;6243;51.244;6.774;2023-04-07T02:32:39;27.30;;;20.93;;
12356;SDS011;6243;51.244;6.774;2023-04-07T02:35:05;25.27;;;20.57;;
12356;SDS011;6243;51.244;6.774;2023-04-07T02:37:31;26.47;;;20.50;;
12356;SDS011;6243;51.244;6.774;2023-04-07T02:39:57;27.87;;;20.60;;
12356;SDS011;6243;51.244;6.774;2023-04-07T02:42:23;28.53;;;21.37;;
12356;SDS011;6243;51.244;6.774;2023-04-07T02:44:49;30.30;;;21.70;;
12356;SDS011;6243;51.244;6.774;2023-04-07T02:47:14;27.30;;;21.73;;
12356;SDS011;6243;51.244;6.774;2023-04-07T02:49:40;26.93;;;20.37;;
12356;SDS011;6243;51.244;6.774;2023-04-07T02:52:05;28.60;;;21.40;;
12356;SDS011;6243;51.244;6.774;2023-04-07T02:54:31;26.70;;;20.03;;
12356;SDS011;6243;51.244;6.774;2023-04-07T02:56:58;24.53;;;19.17;;
12356;SDS011;6243;51.244;6.774;2023-04-07T02:59:23;24.60;;;18.97;;
12356;SDS011;6243;51.244;6.774;2023-04-07T03:01:49;24.30;;;18.97;;
12356;SDS011;6243;51.244;6.774;2023-04-07T03:04:14;22.60;;;17.23;;
12356;SDS011;6243;51.244;6.774;2023-04-07T03:06:40;25.47;;;18.40;;
12356;SDS011;6243;51.244;6.774;2023-04-07T03:09:05;20.97;;;16.73;;
12356;SDS011;6243;51.244;6.774;2023-04-07T03:11:31;19.57;;;14.53;;
12356;SDS011;6243;51.244;6.774;2023-04-07T03:13:57;20.17;;;14.53;;
12356;SDS011;6243;51.244;6.774;2023-04-07T03:16:23;20.17;;;15.07;;
12356;SDS011;6243;51.244;6.774;2023-04-07T03:18:48;17.90;;;13.93;;
12356;SDS011;6243;51.244;6.774;2023-04-07T03:21:14;17.03;;;13.73;;
12356;SDS011;6243;51.244;6.774;2023-04-07T03:23:39;16.73;;;13.23;;
12356;SDS011;6243;51.244;6.774;2023-04-07T03:26:05;15.37;;;13.33;;
12356;SDS011;6243;51.244;6.774;2023-04-07T03:28:31;17.00;;;13.63;;
12356;SDS011;6243;51.244;6.774;2023-04-07T03:30:57;15.37;;;13.20;;
12356;SDS011;6243;51.244;6.774;2023-04-07T03:33:23;16.30;;;12.93;;
12356;SDS011;6243;51.244;6.774;2023-04-07T03:35:48;17.57;;;12.80;;
12356;SDS011;6243;51.244;6.774;2023-04-07T03:38:14;15.40;;;12.00;;
12356;SDS011;6243;51.244;6.774;2023-04-07T03:40:39;16.67;;;11.97;;
12356;SDS011;6243;51.244;6.774;2023-04-07T03:43:05;15.23;;;12.93;;
12356;SDS011;6243;51.244;6.774;2023-04-07T03:45:32;15.23;;;12.27;;
12356;SDS011;6243;51.244;6.774;2023-04-07T03:47:59;14.43;;;11.67;;
12356;SDS011;6243;51.244;6.774;2023-04-07T03:50:24;16.93;;;12.20;;
12356;SDS011;6243;51.244;6.774;2023-04-07T03:52:50;14.13;;;12.00;;
12356;SDS011;6243;51.244;6.774;2023-04-07T03:55:15;15.90;;;12.40;;
12356;SDS011;6243;51.244;6.774;2023-04-07T03:57:41;16.27;;;13.37;;
12356;SDS011;6243;51.244;6.774;2023-04-07T04:00:07;16.37;;;12.77;;
12356;SDS011;6243;51.244;6.774;2023-04-07T04:02:33;18.23;;;12.97;;
12356;SDS011;6243;51.244;6.774;2023-04-07T04:05:00;16.83;;;12.67;;
12356;SDS011;6243;51.244;6.774;2023-04-07T04:07:25;14.80;;;12.03;;
12356;SDS011;6243;51.244;6.774;2023-04-07T04:09:51;13.73;;;11.77;;
12356;SDS011;6243;51.244;6.774;2023-04-07T04:12:16;16.50;;;12.30;;
12356;SDS011;6243;51.244;6.774;2023-04-07T04:14:42;15.47;;;12.27;;
12356;SDS011;6243;51.244;6.774;2023-04-07T04:17:07;16.37;;;11.13;;
12356;SDS011;6243;51.244;6.774;2023-04-07T04:19:33;14.10;;;11.23;;
12356;SDS011;6243;51.244;6.774;2023-04-07T04:21:59;14.23;;;10.70;;
12356;SDS011;6243;51.244;6.774;2023-04-07T04:24:25;12.10;;;10.40;;
12356;SDS011;6243;51.244;6.774;2023-04-07T04:26:50;11.30;;;9.47;;
12356;SDS011;6243;51.244;6.774;2023-04-07T04:29:16;15.37;;;9.90;;
12356;SDS011;6243;51.244;6.774;2023-04-07T04:31:41;10.47;;;8.43;;
12356;SDS011;6243;51.244;6.774;2023-04-07T04:34:07;11.33;;;8.93;;
12356;SDS011;6243;51.244;6.774;2023-04-07T04:36:32;10.63;;;8.67;;
12356;SDS011;6243;51.244;6.774;2023-04-07T04:38:59;10.13;;;8.33;;
12356;SDS011;6243;51.244;6.774;2023-04-07T04:41:25;9.70;;;7.63;;
12356;SDS011;6243;51.244;6.774;2023-04-07T04:43:50;8.70;;;7.57;;
12356;SDS011;6243;51.244;6.774;2023-04-07T04:46:16;7.40;;;6.20;;
12356;SDS011;6243;51.244;6.774;2023-04-07T04:48:41;8.87;;;7.30;;
12356;SDS011;6243;51.244;6.774;2023-04-07T04:51:07;9.50;;;7.37;;
12356;SDS011;6243;51.244;6.774;2023-04-07T04:53:32;8.70;;;6.93;;
12356;SDS011;6243;51.244;6.774;2023-04-07T04:55:59;8.10;;;7.30;;
12356;SDS011;6243;51.244;6.774;2023-04-07T04:58:25;7.83;;;6.73;;
12356;SDS011;6243;51.244;6.774;2023-04-07T05:00:52;10.20;;;6.70;;
12356;SDS011;6243;51.244;6.774;2023-04-07T05:03:18;9.30;;;6.60;;
12356;SDS011;6243;51.244;6.774;2023-04-07T05:05:46;9.30;;;6.20;;
12356;SDS011;6243;51.244;6.774;2023-04-07T05:08:11;8.73;;;7.10;;
12356;SDS011;6243;51.244;6.774;2023-04-07T05:10:37;9.13;;;6.73;;
12356;SDS011;6243;51.244;6.774;2023-04-07T05:13:04;8.50;;;6.43;;
12356;SDS011;6243;51.244;6.774;2023-04-07T05:15:29;7.93;;;6.13;;
12356;SDS011;6243;51.244;6.774;2023-04-07T05:17:55;7.23;;;6.40;;
12356;SDS011;6243;51.244;6.774;2023-04-07T05:20:20;9.20;;;6.60;;
12356;SDS011;6243;51.244;6.774;2023-04-07T05:22:46;8.23;;;5.93;;
12356;SDS011;6243;51.244;6.774;2023-04-07T05:25:11;8.20;;;6.20;;
12356;SDS011;6243;51.244;6.774;2023-04-07T05:27:37;10.63;;;7.37;;
12356;SDS011;6243;51.244;6.774;2023-04-07T05:30:04;9.93;;;7.90;;
12356;SDS011;6243;51.244;6.774;2023-04-07T05:32:31;7.97;;;6.27;;
12356;SDS011;6243;51.244;6.774;2023-04-07T05:34:56;10.83;;;7.13;;
12356;SDS011;6243;51.244;6.774;2023-04-07T05:37:22;8.50;;;6.53;;
12356;SDS011;6243;51.244;6.774;2023-04-07T05:39:47;9.67;;;6.00;;
12356;SDS011;6243;51.244;6.774;2023-04-07T05:42:13;9.63;;;6.83;;
12356;SDS011;6243;51.244;6.774;2023-04-07T05:44:38;10.13;;;7.20;;
12356;SDS011;6243;51.244;6.774;2023-04-07T05:47:05;10.60;;;6.73;;
12356;SDS011;6243;51.244;6.774;2023-04-07T05:49:31;8.70;;;6.63;;
12356;SDS011;6243;51.244;6.774;2023-04-07T05:51:56;9.13;;;7.00;;
12356;SDS011;6243;51.244;6.774;2023-04-07T05:54:22;8.67;;;6.80;;
12356;SDS011;6243;51.244;6.774;2023-04-07T05:56:47;9.50;;;7.50;;
12356;SDS011;6243;51.244;6.774;2023-04-07T05:59:13;10.43;;;7.17;;
12356;SDS011;6243;51.244;6.774;2023-04-07T06:01:38;13.23;;;7.00;;
12356;SDS011;6243;51.244;6.774;2023-04-07T06:04:05;9.93;;;6.90;;
12356;SDS011;6243;51.244;6.774;2023-04-07T06:06:30;9.97;;;7.03;;
12356;SDS011;6243;51.244;6.774;2023-04-07T06:08:56;12.33;;;7.27;;
12356;SDS011;6243;51.244;6.774;2023-04-07T06:11:21;8.70;;;6.80;;
12356;SDS011;6243;51.244;6.774;2023-04-07T06:13:47;11.60;;;6.40;;
12356;SDS011;6243;51.244;6.774;2023-04-07T06:16:12;8.97;;;6.60;;
12356;SDS011;6243;51.244;6.774;2023-04-07T06:18:38;9.37;;;6.50;;
12356;SDS011;6243;51.244;6.774;2023-04-07T06:21:05;9.57;;;6.57;;
12356;SDS011;6243;51.244;6.774;2023-04-07T06:23:31;9.47;;;6.90;;
12356;SDS011;6243;51.244;6.774;2023-04-07T06:25:56;8.80;;;6.17;;
12356;SDS011;6243;51.244;6.774;2023-04-07T06:28:22;9.13;;;6.43;;
12356;SDS011;6243;51.244;6.774;2023-04-07T06:30:47;7.80;;;6.13;;
12356;SDS011;6243;51.244;6.774;2023-04-07T06:33:13;9.30;;;6.67;;
12356;SDS011;6243;51.244;6.774;2023-04-07T06:35:38;9.90;;;6.60;;
12356;SDS011;6243;51.244;6.774;2023-04-07T06:38:06;9.23;;;7.00;;
12356;SDS011;6243;51.244;6.774;2023-04-07T06:40:31;9.70;;;7.33;;
12356;SDS011;6243;51.244;6.774;2023-04-07T06:42:57;8.93;;;7.40;;
12356;SDS011;6243;51.244;6.774;2023-04-07T06:45:22;8.40;;;7.07;;
12356;SDS011;6243;51.244;6.774;2023-04-07T06:47:48;8.83;;;6.90;;
12356;SDS011;6243;51.244;6.774;2023-04-07T06:50:13;8.30;;;7.03;;
12356;SDS011;6243;51.244;6.774;2023-04-07T06:52:39;9.53;;;7.20;;
12356;SDS011;6243;51.244;6.774;2023-04-07T06:55:06;7.90;;;6.17;;
12356;SDS011;6243;51.244;6.774;2023-04-07T06:57:32;10.57;;;6.40;;
12356;SDS011;6243;51.244;6.774;2023-04-07T06:59:58;9.80;;;7.03;;
12356;SDS011;6243;51.244;6.774;2023-04-07T07:02:23;9.30;;;6.77;;
12356;SDS011;6243;51.244;6.774;2023-04-07T07:04:50;8.17;;;7.00;;
12356;SDS011;6243;51.244;6.774;2023-04-07T07:07:15;10.47;;;7.00;;
12356;SDS011;6243;51.244;6.774;2023-04-07T07:09:41;12.23;;;8.23;;
12356;SDS011;6243;51.244;6.774;2023-04-07T07:12:07;8.17;;;6.57;;
12356;SDS011;6243;51.244;6.774;2023-04-07T07:14:33;8.40;;;6.93;;
12356;SDS011;6243;51.244;6.774;2023-04-07T07:16:58;12.43;;;7.40;;
12356;SDS011;6243;51.244;6.774;2023-04-07T07:19:24;10.03;;;8.03;;
12356;SDS011;6243;51.244;6.774;2023-04-07T07:21:49;8.77;;;7.23;;
12356;SDS011;6243;51.244;6.774;2023-04-07T07:24:15;13.87;;;8.60;;
12356;SDS011;6243;51.244;6.774;2023-04-07T07:26:40;12.73;;;8.13;;
12356;SDS011;6243;51.244;6.774;2023-04-07T07:29:07;9.93;;;7.77;;
12356;SDS011;6243;51.244;6.774;2023-04-07T07:31:33;14.47;;;9.30;;
12356;SDS011;6243;51.244;6.774;2023-04-07T07:33:58;11.53;;;8.83;;
12356;SDS011;6243;51.244;6.774;2023-04-07T07:36:24;12.90;;;8.53;;
12356;SDS011;6243;51.244;6.774;2023-04-07T07:38:49;12.97;;;9.13;;
12356;SDS011;6243;51.244;6.774;2023-04-07T07:41:15;13.37;;;9.50;;
12356;SDS011;6243;51.244;6.774;2023-04-07T07:43:40;11.20;;;8.60;;
12356;SDS011;6243;51.244;6.774;2023-04-07T07:46:07;12.70;;;9.53;;
12356;SDS011;6243;51.244;6.774;2023-04-07T07:48:33;13.40;;;8.87;;
12356;SDS011;6243;51.244;6.774;2023-04-07T07:50:58;12.23;;;9.27;;
12356;SDS011;6243;51.244;6.774;2023-04-07T07:53:24;11.70;;;8.47;;
12356;SDS011;6243;51.244;6.774;2023-04-07T07:55:49;13.37;;;10.00;;
12356;SDS011;6243;51.244;6.774;2023-04-07T07:58:15;12.60;;;9.37;;
12356;SDS011;6243;51.244;6.774;2023-04-07T08:00:40;11.83;;;9.50;;
12356;SDS011;6243;51.244;6.774;2023-04-07T08:03:07;14.93;;;9.87;;
12356;SDS011;6243;51.244;6.774;2023-04-07T08:05:33;12.60;;;9.07;;
12356;SDS011;6243;51.244;6.774;2023-04-07T08:07:58;11.37;;;9.30;;
12356;SDS011;6243;51.244;6.774;2023-04-07T08:10:24;16.03;;;10.40;;
12356;SDS011;6243;51.244;6.774;2023-04-07T08:12:49;17.77;;;10.17;;
12356;SDS011;6243;51.244;6.774;2023-04-07T08:15:15;14.60;;;10.40;;
12356;SDS011;6243;51.244;6.774;2023-04-07T08:17:40;14.33;;;9.27;;
12356;SDS011;6243;51.244;6.774;2023-04-07T08:20:08;12.90;;;9.63;;
12356;SDS011;6243;51.244;6.774;2023-04-07T08:22:34;13.90;;;10.70;;
12356;SDS011;6243;51.244;6.774;2023-04-07T08:25:00;13.50;;;9.93;;
12356;SDS011;6243;51.244;6.774;2023-04-07T08:27:25;13.27;;;10.50;;
12356;SDS011;6243;51.244;6.774;2023-04-07T08:29:57;13.87;;;10.07;;
12356;SDS011;6243;51.244;6.774;2023-04-07T08:32:23;14.97;;;9.60;;
12356;SDS011;6243;51.244;6.774;2023-04-07T08:34:49;14.57;;;10.07;;
12356;SDS011;6243;51.244;6.774;2023-04-07T08:37:16;14.50;;;10.47;;
12356;SDS011;6243;51.244;6.774;2023-04-07T08:39:41;14.23;;;10.00;;
12356;SDS011;6243;51.244;6.774;2023-04-07T08:42:07;13.20;;;9.77;;
12356;SDS011;6243;51.244;6.774;2023-04-07T08:44:34;13.63;;;9.60;;
12356;SDS011;6243;51.244;6.774;2023-04-07T08:47:02;11.37;;;9.10;;
12356;SDS011;6243;51.244;6.774;2023-04-07T08:49:30;14.50;;;9.43;;
12356;SDS011;6243;51.244;6.774;2023-04-07T08:51:58;12.40;;;9.23;;
12356;SDS011;6243;51.244;6.774;2023-04-07T08:54:26;13.10;;;10.20;;
12356;SDS011;6243;51.244;6.774;2023-04-07T08:56:52;15.20;;;9.17;;
12356;SDS011;6243;51.244;6.774;2023-04-07T08:59:18;15.10;;;9.93;;
12356;SDS011;6243;51.244;6.774;2023-04-07T09:01:45;16.00;;;10.77;;
12356;SDS011;6243;51.244;6.774;2023-04-07T09:04:11;14.90;;;10.63;;
12356;SDS011;6243;51.244;6.774;2023-04-07T09:06:37;14.57;;;10.50;;
12356;SDS011;6243;51.244;6.774;2023-04-07T09:09:03;14.50;;;10.03;;
12356;SDS011;6243;51.244;6.774;2023-04-07T09:11:34;13.07;;;9.13;;
12356;SDS011;6243;51.244;6.774;2023-04-07T09:14:01;14.93;;;9.73;;
12356;SDS011;6243;51.244;6.774;2023-04-07T09:16:27;14.10;;;9.60;;
12356;SDS011;6243;51.244;6.774;2023-04-07T09:18:53;13.67;;;9.57;;
12356;SDS011;6243;51.244;6.774;2023-04-07T09:21:18;14.10;;;10.47;;
12356;SDS011;6243;51.244;6.774;2023-04-07T09:23:44;14.50;;;10.47;;
12356;SDS011;6243;51.244;6.774;2023-04-07T09:26:17;16.70;;;9.70;;
12356;SDS011;6243;51.244;6.774;2023-04-07T09:28:47;14.60;;;10.77;;
12356;SDS011;6243;51.244;6.774;2023-04-07T09:31:13;13.90;;;10.30;;
12356;SDS011;6243;51.244;6.774;2023-04-07T09:33:39;16.93;;;11.20;;
12356;SDS011;6243;51.244;6.774;2023-04-07T09:36:05;14.50;;;11.43;;
12356;SDS011;6243;51.244;6.774;2023-04-07T09:38:33;17.60;;;11.80;;
12356;SDS011;6243;51.244;6.774;2023-04-07T09:41:07;18.07;;;11.27;;
12356;SDS011;6243;51.244;6.774;2023-04-07T09:43:34;18.20;;;11.27;;
12356;SDS011;6243;51.244;6.774;2023-04-07T09:46:09;15.43;;;10.70;;
12356;SDS011;6243;51.244;6.774;2023-04-07T09:48:36;14.60;;;11.30;;
12356;SDS011;6243;51.244;6.774;2023-04-07T09:51:05;14.43;;;11.13;;
12356;SDS011;6243;51.244;6.774;2023-04-07T09:53:40;16.80;;;11.40;;
12356;SDS011;6243;51.244;6.774;2023-04-07T09:56:06;17.07;;;11.67;;
12356;SDS011;6243;51.244;6.774;2023-04-07T09:58:33;13.33;;;11.17;;
12356;SDS011;6243;51.244;6.774;2023-04-07T10:00:59;14.30;;;10.63;;
12356;SDS011;6243;51.244;6.774;2023-04-07T10:03:27;14.23;;;10.87;;
12356;SDS011;6243;51.244;6.774;2023-04-07T10:05:52;13.13;;;10.33;;
12356;SDS011;6243;51.244;6.774;2023-04-07T10:08:18;15.37;;;10.40;;
12356;SDS011;6243;51.244;6.774;2023-04-07T10:10:44;17.83;;;10.90;;
12356;SDS011;6243;51.244;6.774;2023-04-07T10:13:10;14.23;;;10.00;;
12356;SDS011;6243;51.244;6.774;2023-04-07T10:15:37;14.03;;;10.77;;
12356;SDS011;6243;51.244;6.774;2023-04-07T10:18:03;15.00;;;10.00;;
12356;SDS011;6243;51.244;6.774;2023-04-07T10:20:32;13.73;;;9.70;;
12356;SDS011;6243;51.244;6.774;2023-04-07T10:23:00;13.10;;;9.77;;
12356;SDS011;6243;51.244;6.774;2023-04-07T10:25:32;13.90;;;10.53;;
12356;SDS011;6243;51.244;6.774;2023-04-07T10:27:58;14.97;;;9.20;;
12356;SDS011;6243;51.244;6.774;2023-04-07T10:30:29;12.63;;;9.97;;
12356;SDS011;6243;51.244;6.774;2023-04-07T10:32:56;13.83;;;9.40;;
12356;SDS011;6243;51.244;6.774;2023-04-07T10:35:22;10.40;;;8.73;;
12356;SDS011;6243;51.244;6.774;2023-04-07T10:40:36;11.53;;;9.07;;
12356;SDS011;6243;51.244;6.774;2023-04-07T10:43:02;12.83;;;8.67;;
12356;SDS011;6243;51.244;6.774;2023-04-07T10:48:17;10.17;;;7.60;;
12356;SDS011;6243;51.244;6.774;2023-04-07T10:50:43;11.00;;;7.53;;
12356;SDS011;6243;51.244;6.774;2023-04-07T10:53:10;9.90;;;7.40;;
12356;SDS011;6243;51.244;6.774;2023-04-07T10:55:37;11.77;;;7.73;;
12356;SDS011;6243;51.244;6.774;2023-04-07T10:58:13;11.73;;;8.60;;
12356;SDS011;6243;51.244;6.774;2023-04-07T11:01:15;11.03;;;7.73;;
12356;SDS011;6243;51.244;6.774;2023-04-07T11:03:57;12.73;;;7.97;;
12356;SDS011;6243;51.244;6.774;2023-04-07T11:06:23;13.90;;;9.03;;
12356;SDS011;6243;51.244;6.774;2023-04-07T11:08:50;10.47;;;7.73;;
12356;SDS011;6243;51.244;6.774;2023-04-07T11:11:19;11.30;;;8.27;;
12356;SDS011;6243;51.244;6.774;2023-04-07T11:13:59;10.87;;;8.43;;
12356;SDS011;6243;51.244;6.774;2023-04-07T11:16:34;8.90;;;8.00;;
12356;SDS011;6243;51.244;6.774;2023-04-07T11:19:00;9.80;;;7.97;;
12356;SDS011;6243;51.244;6.774;2023-04-07T11:21:26;10.33;;;8.33;;
12356;SDS011;6243;51.244;6.774;2023-04-07T11:23:53;9.30;;;8.07;;
12356;SDS011;6243;51.244;6.774;2023-04-07T11:26:18;9.43;;;8.10;;
12356;SDS011;6243;51.244;6.774;2023-04-07T11:28:44;11.77;;;8.23;;
12356;SDS011;6243;51.244;6.774;2023-04-07T11:31:10;14.43;;;8.73;;
12356;SDS011;6243;51.244;6.774;2023-04-07T11:33:36;13.00;;;8.87;;
12356;SDS011;6243;51.244;6.774;2023-04-07T11:36:04;12.80;;;8.93;;
12356;SDS011;6243;51.244;6.774;2023-04-07T11:38:34;11.67;;;8.83;;
12356;SDS011;6243;51.244;6.774;2023-04-07T11:41:10;12.80;;;9.97;;
12356;SDS011;6243;51.244;6.774;2023-04-07T11:43:37;13.37;;;9.17;;
12356;SDS011;6243;51.244;6.774;2023-04-07T11:46:03;13.93;;;10.20;;
12356;SDS011;6243;51.244;6.774;2023-04-07T11:48:30;10.23;;;8.97;;
12356;SDS011;6243;51.244;6.774;2023-04-07T11:50:57;13.37;;;9.77;;
12356;SDS011;6243;51.244;6.774;2023-04-07T11:53:26;18.70;;;9.87;;
12356;SDS011;6243;51.244;6.774;2023-04-07T11:56:00;13.33;;;9.43;;
12356;SDS011;6243;51.244;6.774;2023-04-07T11:58:28;11.17;;;8.83;;
12356;SDS011;6243;51.244;6.774;2023-04-07T12:00:53;12.37;;;9.93;;
12356;SDS011;6243;51.244;6.774;2023-04-07T12:03:19;12.53;;;10.07;;
12356;SDS011;6243;51.244;6.774;2023-04-07T12:05:44;11.47;;;9.90;;
12356;SDS011;6243;51.244;6.774;2023-04-07T12:08:10;12.03;;;9.47;;
12356;SDS011;6243;51.244;6.774;2023-04-07T12:10:35;12.93;;;9.97;;
12356;SDS011;6243;51.244;6.774;2023-04-07T12:13:02;13.07;;;10.23;;
12356;SDS011;6243;51.244;6.774;2023-04-07T12:15:29;14.70;;;10.80;;
12356;SDS011;6243;51.244;6.774;2023-04-07T12:17:55;13.97;;;9.80;;
12356;SDS011;6243;51.244;6.774;2023-04-07T12:20:20;11.07;;;9.30;;
12356;SDS011;6243;51.244;6.774;2023-04-07T12:22:46;10.77;;;8.93;;
12356;SDS011;6243;51.244;6.774;2023-04-07T12:25:11;12.43;;;9.53;;
12356;SDS011;6243;51.244;6.774;2023-04-07T12:27:36;10.43;;;9.17;;
12356;SDS011;6243;51.244;6.774;2023-04-07T12:30:02;10.60;;;8.77;;
12356;SDS011;6243;51.244;6.774;2023-04-07T12:32:29;10.63;;;7.77;;
12356;SDS011;6243;51.244;6.774;2023-04-07T12:34:55;9.80;;;8.50;;
12356;SDS011;6243;51.244;6.774;2023-04-07T12:37:20;10.47;;;8.30;;
12356;SDS011;6243;51.244;6.774;2023-04-07T12:39:46;9.33;;;7.90;;
12356;SDS011;6243;51.244;6.774;2023-04-07T12:42:11;10.90;;;7.77;;
12356;SDS011;6243;51.244;6.774;2023-04-07T12:44:37;10.33;;;7.73;;
12356;SDS011;6243;51.244;6.774;2023-04-07T12:47:02;8.00;;;7.20;;
12356;SDS011;6243;51.244;6.774;2023-04-07T12:49:29;9.43;;;7.47;;
12356;SDS011;6243;51.244;6.774;2023-04-07T12:51:55;9.67;;;7.50;;
12356;SDS011;6243;51.244;6.774;2023-04-07T12:54:20;8.70;;;7.30;;
12356;SDS011;6243;51.244;6.774;2023-04-07T12:56:46;10.77;;;7.73;;
12356;SDS011;6243;51.244;6.774;2023-04-07T12:59:11;10.07;;;7.20;;
12356;SDS011;6243;51.244;6.774;2023-04-07T13:01:37;9.33;;;7.13;;
12356;SDS011;6243;51.244;6.774;2023-04-07T13:04:02;10.37;;;7.77;;
12356;SDS011;6243;51.244;6.774;2023-04-07T13:06:29;9.93;;;7.47;;
12356;SDS011;6243;51.244;6.774;2023-04-07T13:08:55;9.80;;;7.73;;
12356;SDS011;6243;51.244;6.774;2023-04-07T13:11:20;9.10;;;7.23;;
12356;SDS011;6243;51.244;6.774;2023-04-07T13:13:46;9.30;;;8.20;;
12356;SDS011;6243;51.244;6.774;2023-04-07T13:16:11;9.93;;;8.07;;
12356;SDS011;6243;51.244;6.774;2023-04-07T13:18:37;10.20;;;8.03;;
12356;SDS011;6243;51.244;6.774;2023-04-07T13:21:02;10.07;;;7.73;;
12356;SDS011;6243;51.244;6.774;2023-04-07T13:23:30;9.53;;;7.77;;
12356;SDS011;6243;51.244;6.774;2023-04-07T13:25:55;10.87;;;8.47;;
12356;SDS011;6243;51.244;6.774;2023-04-07T13:28:21;10.60;;;8.03;;
12356;SDS011;6243;51.244;6.774;2023-04-07T13:30:46;10.50;;;7.97;;
12356;SDS011;6243;51.244;6.774;2023-04-07T13:33:12;10.73;;;7.90;;
12356;SDS011;6243;51.244;6.774;2023-04-07T13:35:37;13.07;;;7.90;;
12356;SDS011;6243;51.244;6.774;2023-04-07T13:38:03;10.60;;;8.33;;
12356;SDS011;6243;51.244;6.774;2023-04-07T13:40:30;10.33;;;8.47;;
12356;SDS011;6243;51.244;6.774;2023-04-07T13:42:55;10.00;;;8.73;;
12356;SDS011;6243;51.244;6.774;2023-04-07T13:45:21;10.00;;;9.00;;
12356;SDS011;6243;51.244;6.774;2023-04-07T13:47:46;10.77;;;9.17;;
12356;SDS011;6243;51.244;6.774;2023-04-07T13:50:12;11.33;;;9.10;;
12356;SDS011;6243;51.244;6.774;2023-04-07T13:52:37;13.33;;;8.67;;
12356;SDS011;6243;51.244;6.774;2023-04-07T13:55:03;10.90;;;8.73;;
12356;SDS011;6243;51.244;6.774;2023-04-07T13:57:31;13.50;;;9.43;;
12356;SDS011;6243;51.244;6.774;2023-04-07T13:59:57;10.63;;;9.10;;
12356;SDS011;6243;51.244;6.774;2023-04-07T14:02:22;11.87;;;9.17;;
12356;SDS011;6243;51.244;6.774;2023-04-07T14:04:48;13.80;;;9.50;;
12356;SDS011;6243;51.244;6.774;2023-04-07T14:07:14;12.13;;;9.70;;
12356;SDS011;6243;51.244;6.774;2023-04-07T14:09:39;12.50;;;9.67;;
12356;SDS011;6243;51.244;6.774;2023-04-07T14:12:05;12.97;;;9.70;;
12356;SDS011;6243;51.244;6.774;2023-04-07T14:14:32;12.93;;;8.90;;
12356;SDS011;6243;51.244;6.774;2023-04-07T14:16:58;12.60;;;10.73;;
12356;SDS011;6243;51.244;6.774;2023-04-07T14:19:23;14.07;;;9.77;;
12356;SDS011;6243;51.244;6.774;2023-04-07T14:21:49;15.00;;;10.40;;
12356;SDS011;6243;51.244;6.774;2023-04-07T14:24:15;14.57;;;10.70;;
12356;SDS011;6243;51.244;6.774;2023-04-07T14:26:41;15.20;;;11.23;;
12356;SDS011;6243;51.244;6.774;2023-04-07T14:29:07;14.00;;;11.37;;
12356;SDS011;6243;51.244;6.774;2023-04-07T14:31:34;14.17;;;11.40;;
12356;SDS011;6243;51.244;6.774;2023-04-07T14:33:59;12.33;;;9.20;;
12356;SDS011;6243;51.244;6.774;2023-04-07T14:36:25;14.63;;;11.03;;
12356;SDS011;6243;51.244;6.774;2023-04-07T14:38:50;17.40;;;10.10;;
12356;SDS011;6243;51.244;6.774;2023-04-07T14:41:16;14.57;;;9.20;;
12356;SDS011;6243;51.244;6.774;2023-04-07T14:43:41;11.40;;;9.93;;
12356;SDS011;6243;51.244;6.774;2023-04-07T14:46:07;14.33;;;9.77;;
12356;SDS011;6243;51.244;6.774;2023-04-07T14:48:34;10.43;;;8.60;;
12356;SDS011;6243;51.244;6.774;2023-04-07T14:50:59;14.33;;;9.13;;